Newark, TX (76071)

11:03 PM CDT on June 02, 2015 (GMT -0500)
North Lake | | Change Station
CLOSE
Current Station
Personal Weather Station
Location: Newark, TX
Elevation: 692 ft
Nearby Weather Stations
Active Advisory: Flood Warning

Elev 692 ft 33.00 °N, 97.51 °W | Updated 3 minutes ago

Partly Cloudy
Partly Cloudy
75.9 °F
Feels Like 78 °F
N
7.0
Wind Variable Wind from ESE

Today
High -- | Low -- °F
--% Chance of Precip.
Yesterday
High -- | Low -- °F
Precip. -- in
6:22 AM 8:34 PM
Full, 100% visible
Pressure 29.90 in
Visibility 10.0 miles
Clouds Mostly Cloudy 30000 ft
Heat Index 78 °F
Dew Point 65 °F
Humidity 68%
Rainfall 0.00 in
Snow Depth Not available.
UV 0 out of 12
Pollen 5.80 out of 12
Air Quality Not available.
Flu Activity Local Activity
METAR KAFW 030353Z 14007KT 10SM BKN300 25/18 A2994 RMK AO2 SLP123 T02500183

More Conditions Fewer Conditions

Pressure 29.90 in
Visibility 10.0 miles
Clouds Mostly Cloudy 30000 ft
Heat Index 78 °F
Dew Point 65 °F
Humidity 68%
Rainfall 0.00 in
Snow Depth Not available.
UV 0 out of 12
Pollen 5.80 out of 12
Air Quality Not available.
Flu Activity Local Activity
METAR KAFW 030353Z 14007KT 10SM BKN300 25/18 A2994 RMK AO2 SLP123 T02500183

More Conditions Fewer Conditions

10-Day Weather Forecast

×

Almanac

Astronomy

Jun. 02, 2015 Rise Set
Actual Time
Civil Twilight
Nautical Twilight
Astronomical Twilight
Moon
Length of Visible Light
Length of Day
Tomorrow will be .
, % of the Moon is Illuminated

Today's Extremes

State Highs State Lows

Community

WunderPhotos

Upload Photos

1,826,155 photos uploaded!

WunderBlogs® & News

Nearby

Air Quality

  Air Quality AQ Index Pollutant
Not available.

Snow Depth

Station Depth Elevation

Earthquake Activity

City Distance Mag. Time & Date
Minimum magnitude displayed is 2.5.

Coastal Water Temperatures

Place Temperature

Stations

Nearby Weather Stations

Station Location Temp. Windchill Dew Point Humidity Wind Precip. Elev Updated Type
                   
Flood Warning
Statement as of 8:38 PM CDT on June 02, 2015

The Flood Warning continues for
the West Fork Trinity River near Boyd.
* At 0815 PM Tuesday the stage was 19.16 feet.
* Flood stage is 16 feet.
* Minor flooding is occurring and minor flooding is forecast.
* Forecast... the river will remain near 19 feet for the next few
days.


Lat... Lon 3319 9774 3300 9758 3305 9746 3316 9756